Time;durP1;ratioP1;P1;durP2;ratioP2;P2;SDS_P1;SDS_P2;PMS_P1;PMS_P2;Temp;Humidity;BMP_temperature;BMP_pressure;BME280_temperature;BME280_humidity;BME280_pressure;Samples;Min_cycle;Max_cycle;Signal;HPM_P1;HPM_P2
2023/03/26 00:00:53;;;;;;;22.02;10.77;;;6.70;99.90;;;;;;4996245;28;20100;-77
2023/03/26 00:03:19;;;;;;;20.70;10.25;;;6.70;99.90;;;;;;4996738;28;20282;-77
2023/03/26 00:05:47;;;;;;;21.05;10.35;;;6.70;99.90;;;;;;4996402;28;20046;-77
2023/03/26 00:08:15;;;;;;;15.77;7.72;;;6.70;99.90;;;;;;4983309;28;20095;-77
2023/03/26 00:10:43;;;;;;;17.52;7.90;;;6.70;99.90;;;;;;4996539;28;20037;-77
2023/03/26 00:13:09;;;;;;;18.23;7.53;;;6.70;99.90;;;;;;4980115;28;20042;-77
2023/03/26 00:15:36;;;;;;;23.63;7.20;;;6.70;99.90;;;;;;4980358;28;20041;-77
2023/03/26 00:18:03;;;;;;;13.50;6.13;;;6.70;99.90;;;;;;4994920;28;20046;-78
2023/03/26 00:20:31;;;;;;;13.57;5.22;;;6.70;99.90;;;;;;4996539;28;20052;-77
2023/03/26 00:23:02;;;;;;;11.75;4.90;;;6.70;99.90;;;;;;4997328;28;20493;-77
2023/03/26 00:25:30;;;;;;;12.43;5.05;;;6.70;99.90;;;;;;5003510;28;20104;-78
2023/03/26 00:27:58;;;;;;;14.30;5.35;;;6.70;99.90;;;;;;4998345;28;20042;-77
2023/03/26 00:30:25;;;;;;;8.70;3.92;;;6.70;99.90;;;;;;4996119;28;20124;-78
2023/03/26 00:32:52;;;;;;;10.05;5.18;;;6.70;99.90;;;;;;4997202;28;20140;-78
2023/03/26 00:35:21;;;;;;;12.27;5.38;;;6.70;99.90;;;;;;4997140;28;20233;-78
2023/03/26 00:37:50;;;;;;;10.43;4.22;;;6.70;99.90;;;;;;4977841;28;20042;-77
2023/03/26 00:40:17;;;;;;;13.65;5.25;;;6.70;99.90;;;;;;4997839;28;20066;-78
2023/03/26 00:42:44;;;;;;;9.20;4.63;;;6.70;99.90;;;;;;4995914;28;20077;-76
2023/03/26 00:45:11;;;;;;;12.05;5.18;;;6.70;99.90;;;;;;4982253;28;20060;-77
2023/03/26 00:47:38;;;;;;;8.98;6.30;;;6.70;99.90;;;;;;4980348;28;20137;-77
2023/03/26 00:50:14;;;;;;;14.30;6.43;;;6.70;99.90;;;;;;4995509;28;20458;-78
2023/03/26 00:52:45;;;;;;;12.23;6.60;;;6.70;99.90;;;;;;4975261;28;20046;-77
2023/03/26 00:55:12;;;;;;;11.30;5.47;;;6.70;99.90;;;;;;4978134;28;20076;-75
2023/03/26 00:57:39;;;;;;;12.60;8.23;;;6.70;99.90;;;;;;4995349;28;20144;-76
2023/03/26 01:00:10;;;;;;;13.13;7.85;;;6.70;99.90;;;;;;4997530;28;20034;-77
2023/03/26 01:02:38;;;;;;;20.20;9.85;;;6.70;99.90;;;;;;4979145;28;20034;-77
2023/03/26 01:05:35;;;;;;;13.95;7.28;;;6.60;99.90;;;;;;4994974;28;20042;-78
2023/03/26 01:08:13;;;;;;;14.93;8.77;;;6.70;99.90;;;;;;4997674;28;20045;-75
2023/03/26 01:10:43;;;;;;;12.90;7.38;;;6.70;99.90;;;;;;4994454;28;20116;-77
2023/03/26 01:13:09;;;;;;;17.02;7.40;;;6.70;99.90;;;;;;4996536;28;20037;-78
2023/03/26 01:15:37;;;;;;;20.42;7.70;;;6.60;99.90;;;;;;4996399;28;20038;-77
2023/03/26 01:18:08;;;;;;;12.15;7.28;;;6.60;99.90;;;;;;4993370;28;20084;-77
2023/03/26 01:20:45;;;;;;;11.82;6.50;;;6.60;99.90;;;;;;4979684;28;20129;-77
2023/03/26 01:23:20;;;;;;;10.90;5.68;;;6.60;99.90;;;;;;4994609;28;20046;-77
2023/03/26 01:25:55;;;;;;;16.92;8.35;;;6.60;99.90;;;;;;4976094;28;20129;-77
2023/03/26 01:28:26;;;;;;;15.48;8.65;;;6.60;99.90;;;;;;4998852;28;20100;-76
2023/03/26 01:31:23;;;;;;;16.23;9.73;;;6.60;99.90;;;;;;4995014;28;20569;-76
2023/03/26 01:34:11;;;;;;;18.27;10.88;;;6.60;99.90;;;;;;4979426;28;20057;-78
2023/03/26 01:36:46;;;;;;;17.27;9.45;;;6.60;99.90;;;;;;4977742;28;20049;-78
2023/03/26 01:39:30;;;;;;;18.63;10.70;;;6.60;99.90;;;;;;4980087;28;20683;-77
2023/03/26 01:42:04;;;;;;;16.15;9.68;;;6.60;99.90;;;;;;4994014;28;20144;-78
2023/03/26 01:44:52;;;;;;;23.42;10.93;;;6.60;99.90;;;;;;4998261;28;20042;-76
2023/03/26 01:47:20;;;;;;;26.77;12.00;;;6.60;99.90;;;;;;4995026;28;20042;-75
2023/03/26 01:49:47;;;;;;;25.38;13.40;;;6.70;99.90;;;;;;4998284;28;20046;-75
2023/03/26 01:52:21;;;;;;;25.67;13.45;;;6.60;99.90;;;;;;4977673;28;20476;-77
2023/03/26 01:54:48;;;;;;;28.05;14.52;;;6.70;99.90;;;;;;4977517;28;20141;-77
2023/03/26 01:57:18;;;;;;;34.60;15.50;;;6.70;99.90;;;;;;4977268;28;20050;-77
2023/03/26 02:00:11;;;;;;;29.55;13.48;;;6.70;99.90;;;;;;4993594;28;20050;-78
2023/03/26 02:03:02;;;;;;;29.98;13.52;;;6.70;99.90;;;;;;4992289;28;20057;-78
2023/03/26 02:05:34;;;;;;;30.83;14.73;;;6.70;99.90;;;;;;4990959;28;20419;-77
2023/03/26 02:08:34;;;;;;;33.10;15.75;;;6.70;99.90;;;;;;4993692;28;20037;-79
2023/03/26 02:11:11;;;;;;;27.85;14.82;;;6.70;99.90;;;;;;4966770;28;20096;-80
2023/03/26 02:13:40;;;;;;;36.95;15.88;;;6.70;99.90;;;;;;4970711;28;20054;-79
2023/03/26 02:16:12;;;;;;;46.80;18.48;;;6.70;99.90;;;;;;4996872;28;20061;-78
2023/03/26 02:18:40;;;;;;;39.80;16.98;;;6.70;99.90;;;;;;4998250;28;20064;-77
2023/03/26 02:21:20;;;;;;;32.63;17.17;;;6.70;99.90;;;;;;5003231;28;20046;-79
2023/03/26 02:23:56;;;;;;;36.45;16.83;;;6.70;99.90;;;;;;4995608;28;20042;-79
2023/03/26 02:26:23;;;;;;;38.35;18.63;;;6.70;99.90;;;;;;4996835;28;20046;-77
2023/03/26 02:29:04;;;;;;;40.55;17.95;;;6.70;99.90;;;;;;4997652;28;20037;-78
2023/03/26 02:31:32;;;;;;;33.60;17.50;;;6.70;99.90;;;;;;4995770;28;20279;-80
2023/03/26 02:33:59;;;;;;;37.60;17.15;;;6.70;99.90;;;;;;4995805;28;20124;-78
2023/03/26 02:36:28;;;;;;;32.50;17.80;;;6.70;99.90;;;;;;4978734;28;20053;-79
2023/03/26 02:38:59;;;;;;;39.15;19.20;;;6.70;99.90;;;;;;4994560;28;20056;-78
2023/03/26 02:41:27;;;;;;;40.00;17.63;;;6.70;99.90;;;;;;4995973;28;20045;-78
2023/03/26 02:44:00;;;;;;;46.97;22.08;;;6.70;99.90;;;;;;4980796;28;20045;-78
2023/03/26 02:46:45;;;;;;;;;;;6.70;99.90;;;;;;4996814;28;20565;-79
2023/03/26 02:49:38;;;;;;;48.20;19.77;;;6.70;99.90;;;;;;4988995;28;19925;-78
2023/03/26 02:52:05;;;;;;;46.95;19.45;;;6.70;99.90;;;;;;4994377;28;20037;-79
2023/03/26 02:54:34;;;;;;;48.90;18.27;;;6.80;99.90;;;;;;4998614;28;20046;-78
2023/03/26 02:57:18;;;;;;;40.78;17.80;;;6.70;99.90;;;;;;4996143;28;20048;-81
2023/03/26 02:59:54;;;;;;;37.60;15.88;;;6.70;99.90;;;;;;4997394;28;20056;-78
2023/03/26 03:02:43;;;;;;;41.88;14.82;;;6.80;99.90;;;;;;4994869;28;20053;-81
2023/03/26 03:05:30;;;;;;;43.05;14.73;;;6.70;99.90;;;;;;4996951;28;20086;-81
2023/03/26 03:08:17;;;;;;;44.60;14.18;;;6.80;99.90;;;;;;4994903;28;20578;-78
2023/03/26 03:11:10;;;;;;;52.65;14.30;;;6.80;99.90;;;;;;5004870;28;20038;-80
2023/03/26 03:13:56;;;;;;;45.25;15.40;;;6.80;99.90;;;;;;5013168;28;20042;-78
2023/03/26 03:16:27;;;;;;;40.95;14.95;;;6.80;99.90;;;;;;5013659;28;20049;-80
2023/03/26 03:18:56;;;;;;;50.25;16.30;;;6.80;99.90;;;;;;5013381;28;20038;-79
2023/03/26 03:21:33;;;;;;;42.67;15.90;;;6.80;99.90;;;;;;5015571;28;20045;-80
2023/03/26 03:23:59;;;;;;;40.95;12.40;;;6.80;99.90;;;;;;5019743;28;20048;-79
2023/03/26 03:26:30;;;;;;;42.13;14.20;;;6.80;99.90;;;;;;5020287;28;20313;-80
2023/03/26 03:29:08;;;;;;;52.80;14.70;;;6.80;99.90;;;;;;5012377;28;20056;-80
2023/03/26 03:31:34;;;;;;;51.90;14.45;;;6.80;99.90;;;;;;4999404;28;20073;-80
2023/03/26 03:34:04;;;;;;;57.78;15.88;;;6.80;99.90;;;;;;4999472;28;20038;-79
2023/03/26 03:36:37;;;;;;;46.20;13.85;;;6.80;99.90;;;;;;5018468;28;20046;-80
2023/03/26 03:39:12;;;;;;;49.45;13.38;;;6.90;99.90;;;;;;5002796;28;20053;-79
2023/03/26 03:41:39;;;;;;;47.60;14.38;;;6.80;99.90;;;;;;5015774;28;20200;-79
2023/03/26 03:44:10;;;;;;;52.28;14.70;;;6.80;99.90;;;;;;5012485;28;20022;-78
2023/03/26 03:46:37;;;;;;;44.30;13.68;;;6.80;99.90;;;;;;5021851;28;20029;-79
2023/03/26 03:49:03;;;;;;;53.05;14.15;;;6.80;99.90;;;;;;5020907;28;20030;-78
2023/03/26 03:51:34;;;;;;;54.72;15.05;;;6.90;99.90;;;;;;5013684;28;20045;-77
2023/03/26 03:54:04;;;;;;;44.42;14.95;;;6.80;99.90;;;;;;5002285;28;20520;-77
2023/03/26 03:56:47;;;;;;;42.10;13.52;;;6.80;99.90;;;;;;5002339;28;20065;-77
2023/03/26 03:59:32;;;;;;;48.88;14.82;;;6.80;99.90;;;;;;4998318;28;20053;-78
2023/03/26 04:02:03;;;;;;;43.08;14.07;;;6.80;99.90;;;;;;4981504;28;20690;-77
2023/03/26 04:04:49;;;;;;;60.72;14.90;;;6.80;99.90;;;;;;4996234;28;20046;-76
2023/03/26 04:07:18;;;;;;;66.15;16.20;;;6.80;99.90;;;;;;4993883;28;20072;-77
2023/03/26 04:10:07;;;;;;;46.97;13.57;;;6.80;99.90;;;;;;4995874;28;20034;-78
2023/03/26 04:12:59;;;;;;;50.20;15.82;;;6.90;99.90;;;;;;4984362;28;20718;-77
2023/03/26 04:16:05;;;;;;;55.15;13.98;;;6.90;99.90;;;;;;4986289;28;20048;-76
2023/03/26 04:18:32;;;;;;;51.83;14.18;;;6.90;99.90;;;;;;5001110;28;20069;-76
2023/03/26 04:21:06;;;;;;;53.75;14.93;;;6.90;99.90;;;;;;4988017;28;20037;-78
2023/03/26 04:23:34;;;;;;;50.03;14.60;;;6.90;99.90;;;;;;5003851;28;20050;-75
2023/03/26 04:26:29;;;;;;;56.53;13.30;;;6.90;99.90;;;;;;4999081;28;20434;-78
2023/03/26 04:29:17;;;;;;;38.78;13.00;;;7.00;99.90;;;;;;4997512;28;20096;-76
2023/03/26 04:31:45;;;;;;;54.00;14.23;;;6.90;99.90;;;;;;4983250;28;20567;-74
2023/03/26 04:34:24;;;;;;;51.10;14.60;;;7.00;99.90;;;;;;5001968;28;20646;-77
2023/03/26 04:37:38;;;;;;;54.83;15.40;;;6.90;99.90;;;;;;4995439;28;20058;-77
2023/03/26 04:40:29;;;;;;;53.13;14.90;;;7.00;99.90;;;;;;4986612;28;20053;-78
2023/03/26 04:43:16;;;;;;;47.83;14.10;;;7.00;99.90;;;;;;4982795;28;20045;-78
2023/03/26 04:45:46;;;;;;;43.15;13.63;;;7.00;99.90;;;;;;4996752;28;20057;-77
2023/03/26 04:48:13;;;;;;;43.50;14.50;;;7.00;99.90;;;;;;4996193;28;20049;-80
2023/03/26 04:50:43;;;;;;;42.15;14.52;;;7.00;99.90;;;;;;4993262;28;20103;-77
2023/03/26 04:53:16;;;;;;;44.22;13.60;;;7.00;99.90;;;;;;4995782;28;20077;-78
2023/03/26 04:56:13;;;;;;;53.20;14.25;;;7.00;99.90;;;;;;5000675;28;20073;-79
2023/03/26 04:59:01;;;;;;;56.22;14.77;;;7.10;99.90;;;;;;4996605;28;20053;-79
2023/03/26 05:01:31;;;;;;;54.40;16.45;;;7.00;99.90;;;;;;4996206;28;20050;-77
2023/03/26 05:03:59;;;;;;;49.15;15.70;;;7.00;99.90;;;;;;4991355;28;20057;-76
2023/03/26 05:06:27;;;;;;;50.70;15.32;;;7.00;99.90;;;;;;4994808;28;20050;-76
2023/03/26 05:08:55;;;;;;;45.95;15.18;;;7.00;99.90;;;;;;4976970;28;20104;-78
2023/03/26 05:11:53;;;;;;;39.08;14.27;;;7.10;99.90;;;;;;4991965;28;20046;-77
2023/03/26 05:14:20;;;;;;;59.83;16.65;;;7.10;99.90;;;;;;4994919;28;20353;-77
2023/03/26 05:16:49;;;;;;;49.70;16.63;;;7.10;99.90;;;;;;4976259;28;20053;-79
2023/03/26 05:19:16;;;;;;;42.30;15.68;;;7.10;99.90;;;;;;4980891;28;20072;-78
2023/03/26 05:21:42;;;;;;;58.15;17.92;;;7.10;99.90;;;;;;4974171;28;20076;-77
2023/03/26 05:24:10;;;;;;;57.08;15.00;;;7.10;99.90;;;;;;4994980;28;20045;-77
2023/03/26 05:26:37;;;;;;;52.85;15.75;;;7.10;99.90;;;;;;4991342;28;20265;-77
2023/03/26 05:29:03;;;;;;;45.67;15.70;;;7.10;99.90;;;;;;4993334;28;20402;-77
2023/03/26 05:31:44;;;;;;;48.10;15.30;;;7.10;99.90;;;;;;4991750;28;20038;-76
2023/03/26 05:34:12;;;;;;;51.97;15.35;;;7.10;99.90;;;;;;4994829;28;20130;-78
2023/03/26 05:36:39;;;;;;;48.17;14.60;;;7.10;99.90;;;;;;4993758;28;20052;-80
2023/03/26 05:39:25;;;;;;;58.97;15.50;;;7.10;99.90;;;;;;4980094;28;20125;-79
2023/03/26 05:42:12;;;;;;;55.92;16.33;;;7.10;99.90;;;;;;4993277;28;20068;-79
2023/03/26 05:45:00;;;;;;;44.92;12.88;;;7.10;99.90;;;;;;4997583;28;20034;-79
2023/03/26 05:47:28;;;;;;;44.10;13.52;;;7.20;99.90;;;;;;4996141;28;20048;-77
2023/03/26 05:49:55;;;;;;;51.78;14.50;;;7.10;99.90;;;;;;5000006;28;20034;-77
2023/03/26 05:52:22;;;;;;;42.25;13.02;;;7.10;99.90;;;;;;4983387;28;20124;-78
2023/03/26 05:55:08;;;;;;;38.45;12.98;;;7.10;99.90;;;;;;5000317;28;20136;-79
2023/03/26 05:57:53;;;;;;;55.13;13.88;;;7.10;99.90;;;;;;4998938;28;20080;-78
2023/03/26 06:00:38;;;;;;;55.90;13.80;;;7.10;99.90;;;;;;4997575;28;20444;-78
2023/03/26 06:03:11;;;;;;;41.97;13.45;;;7.10;99.90;;;;;;4997484;28;20073;-80
2023/03/26 06:06:14;;;;;;;47.83;14.60;;;7.20;99.90;;;;;;4982653;28;20439;-79
2023/03/26 06:08:49;;;;;;;57.45;15.13;;;7.20;99.90;;;;;;4978722;28;20617;-80
2023/03/26 06:11:29;;;;;;;50.75;16.63;;;7.20;99.90;;;;;;4999083;28;20050;-76
2023/03/26 06:13:57;;;;;;;48.25;15.13;;;7.20;99.90;;;;;;4998473;28;20675;-76
2023/03/26 06:16:24;;;;;;;56.72;16.05;;;7.20;99.90;;;;;;4996971;28;20042;-78
2023/03/26 06:19:14;;;;;;;48.65;14.38;;;7.20;99.90;;;;;;4995481;28;20053;-77
2023/03/26 06:22:03;;;;;;;46.67;15.63;;;7.30;99.90;;;;;;4999374;28;20042;-78
2023/03/26 06:24:37;;;;;;;41.70;14.93;;;7.30;99.90;;;;;;4998397;28;20511;-76
2023/03/26 06:27:24;;;;;;;41.97;14.13;;;7.30;99.90;;;;;;4990211;28;20381;-76
2023/03/26 06:30:20;;;;;;;;;;;7.30;99.90;;;;;;4997760;28;20046;-78
2023/03/26 06:33:02;;;;;;;51.95;13.90;;;7.30;99.90;;;;;;5003483;28;20481;-78
2023/03/26 06:35:35;;;;;;;56.30;13.77;;;7.30;99.90;;;;;;4999692;28;20140;-77
2023/03/26 06:38:02;;;;;;;45.75;15.85;;;7.30;99.90;;;;;;4980316;28;20068;-79
2023/03/26 06:40:31;;;;;;;41.67;14.80;;;7.30;99.90;;;;;;4997113;28;20662;-79
2023/03/26 06:43:01;;;;;;;43.25;14.43;;;7.30;99.90;;;;;;4998641;28;20042;-78
2023/03/26 06:45:52;;;;;;;51.05;13.98;;;7.40;99.90;;;;;;4995156;28;20111;-78
2023/03/26 06:48:38;;;;;;;60.25;14.77;;;7.40;99.90;;;;;;4996065;28;20077;-77
2023/03/26 06:51:20;;;;;;;47.13;14.82;;;7.50;99.90;;;;;;5002338;28;20053;-80
2023/03/26 06:54:06;;;;;;;38.67;14.23;;;7.60;99.90;;;;;;4997126;28;20045;-78
2023/03/26 06:56:55;;;;;;;39.60;13.48;;;7.60;99.90;;;;;;4996029;28;20050;-78
2023/03/26 06:59:42;;;;;;;33.08;14.52;;;7.60;99.90;;;;;;4993885;28;20038;-78
2023/03/26 07:02:44;;;;;;;39.47;15.57;;;7.60;99.90;;;;;;4937267;28;20043;-76
2023/03/26 07:05:30;;;;;;;48.85;16.30;;;7.70;99.90;;;;;;4991408;28;20050;-78
2023/03/26 07:08:32;;;;;;;46.95;16.02;;;7.80;99.90;;;;;;4961043;28;20043;-77
2023/03/26 07:11:31;;;;;;;51.08;15.57;;;7.80;99.90;;;;;;4998283;28;20492;-78
2023/03/26 07:14:18;;;;;;;39.00;15.10;;;7.80;99.90;;;;;;4996087;28;20435;-77
2023/03/26 07:17:03;;;;;;;;;;;7.70;99.90;;;;;;4995762;28;20065;-79
2023/03/26 07:19:35;;;;;;;48.17;16.70;;;7.70;99.90;;;;;;4976745;28;19922;-80
2023/03/26 07:22:02;;;;;;;38.67;16.38;;;7.60;99.90;;;;;;4985034;28;20046;-80
2023/03/26 07:24:58;;;;;;;42.30;15.60;;;7.50;99.90;;;;;;4999172;28;20054;-79
2023/03/26 07:27:53;;;;;;;38.03;15.07;;;7.30;99.90;;;;;;4984357;28;20038;-78
2023/03/26 07:31:06;;;;;;;43.75;14.75;;;7.20;99.90;;;;;;4997912;28;20049;-78
2023/03/26 07:34:11;;;;;;;39.75;14.63;;;7.20;99.90;;;;;;4978074;28;20042;-79
2023/03/26 07:37:06;;;;;;;45.97;17.00;;;7.40;99.90;;;;;;4995748;28;20045;-78
2023/03/26 07:40:03;;;;;;;37.88;15.95;;;7.40;99.90;;;;;;4995976;28;20065;-79
2023/03/26 07:43:11;;;;;;;48.08;18.08;;;7.60;99.90;;;;;;4983625;28;20044;-79
2023/03/26 07:45:56;;;;;;;50.85;16.88;;;7.90;99.90;;;;;;4997348;28;20042;-79
2023/03/26 07:48:46;;;;;;;49.17;16.40;;;7.90;99.90;;;;;;4993834;28;20354;-79
2023/03/26 07:51:30;;;;;;;47.28;17.25;;;8.10;99.90;;;;;;4993794;28;20042;-79
2023/03/26 07:54:30;;;;;;;49.88;17.00;;;8.20;99.90;;;;;;4974503;28;20057;-79
2023/03/26 07:57:37;;;;;;;47.50;15.52;;;8.40;99.90;;;;;;4991206;28;20112;-78
2023/03/26 08:00:48;;;;;;;50.10;16.67;;;8.40;99.90;;;;;;4994760;28;20048;-79
2023/03/26 08:03:42;;;;;;;38.35;14.93;;;8.50;99.90;;;;;;4995452;28;20049;-80
2023/03/26 08:06:39;;;;;;;51.85;18.08;;;8.50;99.90;;;;;;4996195;28;20048;-80
2023/03/26 08:09:37;;;;;;;53.80;18.30;;;8.40;99.90;;;;;;4993277;28;20072;-79
2023/03/26 08:12:52;;;;;;;46.22;16.10;;;8.60;99.90;;;;;;4980019;28;20049;-79
2023/03/26 08:15:46;;;;;;;35.88;14.50;;;8.60;99.90;;;;;;4993021;28;20038;-78
2023/03/26 08:18:43;;;;;;;49.88;17.08;;;8.60;99.90;;;;;;4983400;28;20660;-77
2023/03/26 08:21:30;;;;;;;44.70;16.35;;;8.60;99.90;;;;;;4995409;28;20060;-77
2023/03/26 08:24:09;;;;;;;57.22;16.05;;;8.60;99.90;;;;;;4994660;28;20054;-79
2023/03/26 08:27:02;;;;;;;43.97;16.98;;;8.70;99.90;;;;;;4994450;28;20141;-79
2023/03/26 08:29:40;;;;;;;39.95;14.95;;;8.80;99.90;;;;;;4974221;28;20080;-77
2023/03/26 08:32:13;;;;;;;30.27;14.05;;;8.90;99.90;;;;;;4994770;28;20050;-77
2023/03/26 08:34:40;;;;;;;28.70;14.10;;;8.80;99.90;;;;;;4993741;28;22112;-78
2023/03/26 08:37:08;;;;;;;36.28;15.77;;;8.80;99.90;;;;;;4993504;28;20048;-77
2023/03/26 08:39:37;;;;;;;31.48;13.65;;;9.00;99.90;;;;;;4997617;28;20050;-77
2023/03/26 08:42:29;;;;;;;26.98;15.10;;;9.00;99.90;;;;;;4994359;28;20046;-77
2023/03/26 08:45:23;;;;;;;26.23;16.58;;;9.00;99.90;;;;;;4995106;28;20054;-77
2023/03/26 08:48:07;;;;;;;32.30;15.82;;;9.00;99.90;;;;;;4994719;28;20333;-77
2023/03/26 08:51:29;;;;;;;36.17;17.77;;;9.00;99.90;;;;;;4980582;28;20564;-77
2023/03/26 08:54:12;;;;;;;34.28;18.27;;;9.10;99.90;;;;;;4944862;28;20530;-77
2023/03/26 08:56:51;;;;;;;26.27;18.17;;;9.20;99.90;;;;;;4993058;28;20049;-77
2023/03/26 08:59:50;;;;;;;22.05;18.85;;;9.20;99.90;;;;;;4988649;28;20045;-77
2023/03/26 09:02:29;;;;;;;27.52;18.17;;;9.30;99.90;;;;;;4994220;28;20041;-77
2023/03/26 09:05:29;;;;;;;34.10;18.90;;;9.30;99.90;;;;;;4997491;28;20042;-77
2023/03/26 09:08:04;;;;;;;41.83;20.92;;;9.50;99.90;;;;;;4968223;28;20133;-79
2023/03/26 09:10:50;;;;;;;36.17;22.35;;;9.60;99.90;;;;;;4994178;28;20100;-76
2023/03/26 09:13:41;;;;;;;34.47;22.02;;;9.60;99.90;;;;;;4998150;28;20302;-77
2023/03/26 09:16:26;;;;;;;41.22;25.08;;;9.60;99.90;;;;;;4994995;28;20050;-78
2023/03/26 09:19:12;;;;;;;92.18;54.38;;;9.60;99.90;;;;;;4994628;28;20038;-78
2023/03/26 09:21:57;;;;;;;;;;;9.80;99.90;;;;;;4976925;28;20037;-77
2023/03/26 09:25:09;;;;;;;30.40;23.08;;;10.00;99.90;;;;;;4994981;28;20294;-78
2023/03/26 09:27:51;;;;;;;32.05;21.98;;;9.90;99.90;;;;;;4969117;28;20037;-77
2023/03/26 09:30:31;;;;;;;27.05;19.33;;;9.90;99.90;;;;;;4993878;28;20384;-78
2023/03/26 09:33:26;;;;;;;35.78;23.30;;;9.90;99.90;;;;;;4995462;28;20176;-80
2023/03/26 09:36:22;;;;;;;32.28;25.48;;;9.80;99.90;;;;;;4994338;28;20042;-78
2023/03/26 09:38:57;;;;;;;27.80;24.98;;;9.80;99.90;;;;;;4992813;28;20072;-80
2023/03/26 09:41:51;;;;;;;34.15;28.58;;;9.80;99.90;;;;;;4994719;28;20499;-77
2023/03/26 09:44:55;;;;;;;32.97;27.67;;;9.70;99.90;;;;;;4972176;28;20044;-79
2023/03/26 09:47:33;;;;;;;29.05;25.52;;;9.60;99.90;;;;;;4996448;28;20050;-76
2023/03/26 09:50:25;;;;;;;34.13;24.38;;;9.50;99.90;;;;;;4978611;28;20603;-77
2023/03/26 09:53:02;;;;;;;37.55;27.27;;;9.40;99.90;;;;;;4977077;28;20050;-79
2023/03/26 09:55:43;;;;;;;33.47;26.40;;;9.50;99.90;;;;;;4994782;28;20052;-77
2023/03/26 09:58:48;;;;;;;30.65;27.45;;;9.60;99.90;;;;;;4994856;28;20145;-78
2023/03/26 10:01:39;;;;;;;38.42;25.90;;;9.60;99.90;;;;;;4973716;28;20080;-77
2023/03/26 10:04:06;;;;;;;39.25;27.63;;;9.60;99.90;;;;;;4981263;28;20049;-78
2023/03/26 10:06:43;;;;;;;29.95;26.70;;;9.60;99.90;;;;;;4995649;28;20042;-77
2023/03/26 10:09:26;;;;;;;34.28;30.85;;;9.60;99.90;;;;;;4993489;28;20137;-77
2023/03/26 10:12:17;;;;;;;32.33;29.65;;;9.50;99.90;;;;;;4988342;28;20050;-76
2023/03/26 10:15:18;;;;;;;30.38;28.10;;;9.20;99.90;;;;;;4996341;28;20046;-76
2023/03/26 10:17:54;;;;;;;31.45;28.80;;;8.90;99.90;;;;;;4994420;28;20161;-78
2023/03/26 10:20:27;;;;;;;29.45;25.95;;;8.70;99.90;;;;;;4979361;28;20921;-76
2023/03/26 10:23:09;;;;;;;26.85;23.23;;;8.60;99.90;;;;;;4980696;28;20649;-78
2023/03/26 10:26:10;;;;;;;27.65;19.58;;;8.60;99.90;;;;;;4997494;28;20121;-77
2023/03/26 10:29:11;;;;;;;25.40;18.10;;;8.40;99.90;;;;;;4999622;28;20046;-79
2023/03/26 10:31:48;;;;;;;23.00;16.30;;;8.20;99.90;;;;;;4995818;28;20038;-79
2023/03/26 10:34:27;;;;;;;16.75;14.20;;;8.10;99.90;;;;;;4982744;28;20084;-78
2023/03/26 10:37:16;;;;;;;19.98;13.68;;;8.20;99.90;;;;;;4996925;28;20699;-76
2023/03/26 10:40:04;;;;;;;26.70;16.55;;;8.10;99.90;;;;;;4996741;28;20574;-76
2023/03/26 10:42:42;;;;;;;33.83;17.23;;;8.10;99.90;;;;;;5000126;28;20069;-76
2023/03/26 10:45:52;;;;;;;16.58;11.43;;;8.10;99.90;;;;;;4985858;28;20049;-76
2023/03/26 10:48:52;;;;;;;340.23;228.43;;;8.20;99.90;;;;;;4942894;28;20787;-79
2023/03/26 10:51:26;;;;;;;70.43;48.03;;;8.00;99.90;;;;;;4998333;28;20046;-77
2023/03/26 10:53:57;;;;;;;65.30;50.70;;;8.00;99.90;;;;;;4983485;28;20474;-79
2023/03/26 10:56:40;;;;;;;49.40;35.55;;;8.00;99.90;;;;;;4999000;28;20733;-77
2023/03/26 10:59:11;;;;;;;22.70;11.32;;;8.00;99.90;;;;;;4997874;28;20049;-77
2023/03/26 11:02:02;;;;;;;79.88;54.47;;;8.00;99.90;;;;;;5001043;28;20049;-77
2023/03/26 11:04:58;;;;;;;24.02;17.40;;;8.00;99.90;;;;;;4997044;28;20048;-80
2023/03/26 11:07:53;;;;;;;16.85;11.02;;;7.80;99.90;;;;;;4981650;28;20049;-78
2023/03/26 11:10:46;;;;;;;26.15;11.95;;;7.90;99.90;;;;;;5001296;28;20503;-78
2023/03/26 11:13:32;;;;;;;20.83;9.80;;;7.90;99.90;;;;;;5003590;28;20034;-80
2023/03/26 11:15:58;;;;;;;;;;;7.80;99.90;;;;;;4998666;28;20114;-80
2023/03/26 11:18:42;;;;;;;30.23;11.70;;;7.90;99.90;;;;;;4983864;28;19993;-79
2023/03/26 11:21:17;;;;;;;26.25;16.92;;;8.10;99.90;;;;;;5000804;28;20042;-76
2023/03/26 11:23:46;;;;;;;35.45;11.60;;;8.30;99.90;;;;;;4998583;28;20048;-76
2023/03/26 11:27:11;;;;;;;38.92;27.38;;;8.40;99.90;;;;;;4999954;28;20037;-76
2023/03/26 11:30:06;;;;;;;47.92;31.63;;;8.50;99.90;;;;;;4984292;28;20531;-79
2023/03/26 11:32:44;;;;;;;21.80;10.32;;;8.30;99.90;;;;;;5000739;28;20038;-79
2023/03/26 11:35:31;;;;;;;22.00;8.27;;;8.40;99.90;;;;;;4999805;28;20046;-78
2023/03/26 11:38:31;;;;;;;18.42;8.38;;;8.30;99.90;;;;;;4999283;28;20121;-79
2023/03/26 11:41:00;;;;;;;11.98;7.63;;;8.20;99.90;;;;;;4998617;28;20907;-77
2023/03/26 11:43:51;;;;;;;14.55;7.90;;;8.00;99.90;;;;;;5002255;28;20127;-78
2023/03/26 11:46:21;;;;;;;13.05;7.97;;;7.90;99.90;;;;;;5000680;28;20132;-80
2023/03/26 11:48:59;;;;;;;11.98;7.90;;;7.90;99.90;;;;;;4982127;28;20462;-80
2023/03/26 11:51:30;;;;;;;14.38;5.93;;;7.90;99.90;;;;;;5000414;28;20125;-79
2023/03/26 11:53:58;;;;;;;19.83;6.65;;;7.90;99.90;;;;;;4998793;28;20503;-79
2023/03/26 11:56:52;;;;;;;18.58;7.30;;;7.90;99.90;;;;;;4981954;28;20043;-79
2023/03/26 11:59:42;;;;;;;13.45;5.80;;;8.00;99.90;;;;;;5000879;28;20130;-79
2023/03/26 12:02:48;;;;;;;11.80;6.00;;;8.10;99.90;;;;;;5001131;28;20045;-78
2023/03/26 12:05:28;;;;;;;11.18;5.05;;;8.20;99.90;;;;;;5004603;28;20072;-80
2023/03/26 12:07:57;;;;;;;14.32;6.03;;;8.20;99.90;;;;;;4982321;28;20448;-78
2023/03/26 12:10:26;;;;;;;13.52;5.57;;;8.10;99.90;;;;;;5000189;28;20068;-79
2023/03/26 12:12:56;;;;;;;16.42;6.97;;;8.00;99.90;;;;;;4999555;28;20100;-80
2023/03/26 12:15:23;;;;;;;9.88;6.05;;;8.00;99.90;;;;;;4986759;28;20060;-79
2023/03/26 12:17:55;;;;;;;7.53;5.18;;;7.80;99.90;;;;;;4983320;28;20108;-79
2023/03/26 12:20:24;;;;;;;5.22;4.00;;;7.70;99.90;;;;;;5002464;28;20562;-78
2023/03/26 12:22:59;;;;;;;12.10;5.70;;;7.60;99.90;;;;;;5000218;28;20518;-79
2023/03/26 12:25:31;;;;;;;6.82;5.82;;;7.60;99.90;;;;;;4999851;28;20084;-79
2023/03/26 12:28:01;;;;;;;7.43;5.55;;;7.50;99.90;;;;;;4981944;28;20046;-79
2023/03/26 12:30:35;;;;;;;10.30;5.65;;;7.40;99.90;;;;;;5003310;28;20030;-79
2023/03/26 12:33:26;;;;;;;9.07;4.60;;;7.40;99.90;;;;;;4984496;28;20116;-79
2023/03/26 12:35:56;;;;;;;5.40;4.50;;;7.50;99.90;;;;;;5000521;28;20296;-79
2023/03/26 12:38:31;;;;;;;20.13;11.43;;;7.50;99.90;;;;;;5006949;28;20046;-79
2023/03/26 12:41:08;;;;;;;10.10;7.05;;;7.40;99.90;;;;;;4979952;28;20050;-79
2023/03/26 12:43:54;;;;;;;6.43;4.82;;;7.50;99.90;;;;;;4994879;28;20042;-79
2023/03/26 12:46:46;;;;;;;17.08;13.98;;;7.60;99.90;;;;;;4996149;28;20148;-78
2023/03/26 12:49:33;;;;;;;15.68;8.93;;;7.70;99.90;;;;;;4997953;28;20038;-80
2023/03/26 12:52:37;;;;;;;6.18;4.63;;;7.80;99.90;;;;;;4994730;28;20044;-78
2023/03/26 12:55:36;;;;;;;8.85;5.65;;;7.80;99.90;;;;;;4993431;28;20050;-80
2023/03/26 12:59:02;;;;;;;4.93;4.53;;;7.80;99.90;;;;;;4979772;28;20046;-79
2023/03/26 13:01:51;;;;;;;5.03;4.63;;;7.80;99.90;;;;;;4959489;28;20084;-77
2023/03/26 13:04:36;;;;;;;7.15;6.55;;;7.90;99.90;;;;;;4957604;28;20067;-78
2023/03/26 13:07:21;;;;;;;6.10;5.70;;;7.80;99.90;;;;;;4985056;28;20038;-78
2023/03/26 13:10:17;;;;;;;8.30;7.38;;;7.80;99.90;;;;;;4995262;28;20042;-76
2023/03/26 13:12:48;;;;;;;;;;;7.80;99.90;;;;;;4998395;28;20056;-78
2023/03/26 13:15:33;;;;;;;7.07;6.43;;;7.90;99.90;;;;;;4985162;28;19932;-78
2023/03/26 13:18:23;;;;;;;5.85;5.53;;;7.90;99.90;;;;;;4995496;28;20106;-77
2023/03/26 13:21:17;;;;;;;8.15;7.55;;;8.00;99.90;;;;;;4995420;28;20129;-76
2023/03/26 13:24:22;;;;;;;8.13;7.72;;;7.90;99.90;;;;;;4998412;28;20132;-77
2023/03/26 13:26:55;;;;;;;8.70;8.30;;;7.80;99.90;;;;;;4974722;28;20105;-76
2023/03/26 13:29:55;;;;;;;8.32;7.82;;;7.90;99.90;;;;;;4979555;28;20109;-78
2023/03/26 13:32:44;;;;;;;8.13;7.43;;;8.20;99.90;;;;;;5000289;28;20056;-77
2023/03/26 13:35:30;;;;;;;7.20;6.57;;;8.30;99.90;;;;;;4980892;28;20634;-78
2023/03/26 13:38:21;;;;;;;11.45;10.00;;;8.30;99.90;;;;;;4998733;28;20140;-77
2023/03/26 13:41:14;;;;;;;10.20;9.10;;;8.30;99.90;;;;;;4993720;28;20491;-78
2023/03/26 13:44:23;;;;;;;7.70;7.30;;;8.10;99.90;;;;;;4996347;28;20058;-77
2023/03/26 13:47:02;;;;;;;8.10;7.60;;;7.70;99.90;;;;;;4974917;28;20041;-76
2023/03/26 13:49:39;;;;;;;7.95;7.22;;;7.30;99.90;;;;;;4979478;28;20038;-77
2023/03/26 13:52:19;;;;;;;8.25;7.55;;;7.20;99.90;;;;;;4973760;28;20045;-77
2023/03/26 13:54:56;;;;;;;6.22;5.70;;;7.20;99.90;;;;;;4995561;28;20046;-76